Terminal Aerodrome Forecast
Issued by NWS Corpus Christi, TX

Home | Current Version | Previous Version | Text Only | Print | Product List | Glossary On
Versions: 1 2 3 4 5 6 7 8 9 10 11 12 13 14 15 16 17 18
807
FTUS44 KCRP 281120
TAFCRP
TAF
KCRP 281120Z 2812/2912 01006KT P6SM FEW025 BKN200
     FM281900 08010KT P6SM SCT030
     FM290700 35005KT P6SM FEW030=

USA.gov is the U.S. government's official web portal to all federal, state and local government web resources and services.